Stena Carrier — OWEE2 — position and weather

sailwx.info

Track history (hours):
 
Tides and Currents Weather Stations Pressure Air Temp Water Temp Dewpoint Dewpoint Depression Visibility Wind Speed Wind Dir Waves Ship Positions

Stena Carrier

Last reported at 2017-Nov-24 21:27 UTC. Time now 2017-Nov-25 02:05 UTC.
Position N 37°06' W 000°50'.

Length 183 m; draft 6 m.

Type: Ship (hazmat cat A). MMSI: 219020207.

Date/timePositionNaut miles runAvg speedWind from/ knotsBaromVisibWave heightAir tempDewpointWater temp
2017-Nov-24 21:27N 37°06' W 000°50'511.7
2017-Nov-24 21:00N 37°09' W 000°44'611.8
2017-Nov-24 20:30N 37°12' W 000°38'611.7
2017-Nov-24 20:00N 37°15' W 000°32'611.6
2017-Nov-24 19:30N 37°18' W 000°26'611.4
2017-Nov-24 19:00N 37°21' W 000°20'611.6
2017-Nov-24 18:30N 37°24' W 000°13'612.0
2017-Nov-24 18:00N 37°27' W 000°07'611.8
2017-Nov-24 17:30N 37°30' W 000°01'611.5
2017-Nov-24 17:00N 37°33' E 000°06'611.4
2017-Nov-24 16:30N 37°37' E 000°11'611.3
2017-Nov-24 16:00N 37°39' E 000°18'611.3
2017-Nov-24 15:30N 37°42' E 000°24'611.3
2017-Nov-24 15:01N 37°45' E 000°30'611.2
2017-Nov-24 14:30N 37°48' E 000°36'611.0
2017-Nov-24 14:00N 37°51' E 000°42'510.8
2017-Nov-24 13:30N 37°54' E 000°48'1010.6
2017-Nov-24 12:31N 37°59' E 000°59'010.3
2017-Nov-24 12:30N 37°59' E 000°59'510.5
2017-Nov-24 12:00N 38°02' E 001°05'510.6
2017-Nov-24 11:30N 38°05' E 001°10'510.7
2017-Nov-24 11:00N 38°08' E 001°16'510.7
2017-Nov-24 10:30N 38°11' E 001°22'510.7
2017-Nov-24 10:00N 38°13' E 001°28'510.7
2017-Nov-24 09:30N 38°16' E 001°34'510.4
2017-Nov-24 09:00N 38°19' E 001°39'710.6
2017-Nov-24 08:22N 38°22' E 001°47'2910.8
2017-Nov-24 05:42N 38°37' E 002°18'211.2
2017-Nov-24 05:30N 38°38' E 002°20'611.2
2017-Nov-24 05:01N 38°41' E 002°27'611.2
2017-Nov-24 04:31N 38°44' E 002°33'611.1
2017-Nov-24 04:00N 38°47' E 002°39'510.7
2017-Nov-24 03:30N 38°50' E 002°45'510.5
2017-Nov-24 03:00N 38°53' E 002°50'510.6
2017-Nov-24 02:30N 38°56' E 002°56'510.9
2017-Nov-24 02:00N 38°59' E 003°02'610.9
2017-Nov-24 01:30N 39°02' E 003°08'611.2
2017-Nov-24 01:00N 39°04' E 003°14'510.6
2017-Nov-24 00:30N 39°07' E 003°20'511.0
2017-Nov-24 00:00N 39°10' E 003°26'510.8
2017-Nov-23 23:30N 39°13' E 003°32'510.9
2017-Nov-23 23:00N 39°16' E 003°38'1711.4
2017-Nov-23 21:34N 39°25' E 003°56'1011.2
2017-Nov-23 20:40N 39°30' E 004°07'510.5
2017-Nov-23 20:11N 39°32' E 004°13'510.9
2017-Nov-23 19:45N 39°35' E 004°18'311.3
2017-Nov-23 19:29N 39°37' E 004°21'  
2017-Nov-19 16:30N 37°45' W 000°21'918.5
2017-Nov-19 16:00N 37°37' W 000°27'918.4
2017-Nov-19 15:30N 37°30' W 000°34'918.4
2017-Nov-19 15:00N 37°24' W 000°43'918.3
2017-Nov-19 14:30N 37°18' W 000°52'22417.5
2017-Nov-19 01:39N 36°00' W 005°14'319.2
2017-Nov-19 01:30N 35°60' W 005°17'918.5
2017-Nov-19 01:00N 35°56' W 005°28'2 0.3
2017-Nov-18 19:01N 35°56' W 005°30'0 8.3
2017-Nov-18 19:00N 35°56' W 005°30'816.2
2017-Nov-18 18:30N 36°00' W 005°22'  
2017-Nov-15 19:01N 42°55' E 009°37'319.2
2017-Nov-15 18:51N 42°58' E 009°36'818.7
2017-Nov-15 18:24N 43°07' E 009°34'818.6
2017-Nov-15 17:57N 43°14' E 009°30'919.2
2017-Nov-15 17:31N 43°23' E 009°26'918.6
2017-Nov-15 17:00N 43°31' E 009°22'917.7
2017-Nov-15 16:30N 43°40' E 009°18'917.8
2017-Nov-15 16:00N 43°48' E 009°14'917.9
2017-Nov-15 15:30N 43°56' E 009°09'918.0
2017-Nov-15 15:00N 44°05' E 009°05'918.1
2017-Nov-15 14:30N 44°13' E 009°01'918.2
2017-Nov-15 14:00N 44°22' E 008°57'3 5.8
2017-Nov-15 13:31N 44°24' E 008°54'0 0.0
2017-Nov-15 13:00N 44°24' E 008°54'0 0.0
2017-Nov-15 12:30N 44°24' E 008°54'0 0.0
2017-Nov-15 11:57N 44°24' E 008°54'0 0.0
2017-Nov-15 11:27N 44°24' E 008°54'0 0.0
2017-Nov-15 11:00N 44°24' E 008°54'0 0.0
2017-Nov-15 10:27N 44°24' E 008°54'0 0.0
2017-Nov-15 09:57N 44°24' E 008°54'0 0.0
2017-Nov-15 09:24N 44°24' E 008°54'0 0.0
2017-Nov-15 08:54N 44°24' E 008°54'0 0.0
2017-Nov-15 08:30N 44°24' E 008°54'0 0.0
2017-Nov-15 08:00N 44°24' E 008°54'0 0.0
2017-Nov-15 07:30N 44°24' E 008°54'0 0.2
2017-Nov-15 07:01N 44°24' E 008°54'3 6.4
2017-Nov-15 06:31N 44°22' E 008°58'713.5
2017-Nov-15 06:00N 44°16' E 008°54'917.8
2017-Nov-15 05:30N 44°09' E 008°46'917.6
2017-Nov-15 05:01N 44°03' E 008°38'917.5
2017-Nov-15 04:30N 43°57' E 008°29'917.8
2017-Nov-15 04:00N 43°51' E 008°20'917.5
2017-Nov-15 03:28N 43°45' E 008°10'2518.6
2017-Nov-15 02:08N 43°30' E 007°43'219.2
2017-Nov-15 02:00N 43°28' E 007°40'919.0
2017-Nov-15 01:31N 43°23' E 007°29'919.0
2017-Nov-15 01:01N 43°17' E 007°19'1019.4
2017-Nov-15 00:30N 43°11' E 007°09'1019.4
2017-Nov-15 00:00N 43°05' E 006°58'  
Track history (hours):
 
Tides and Currents Weather Stations Pressure Air Temp Water Temp Dewpoint Dewpoint Depression Visibility Wind Speed Wind Dir Waves Ship Positions

Stena Carrier

Last reported at 2017-Nov-24 21:27 UTC. Time now 2017-Nov-25 02:05 UTC.
Position N 37°06' W 000°50'.

Length 183 m; draft 6 m.

Type: Ship (hazmat cat A). MMSI: 219020207.

Date/timePositionNaut miles runAvg speedWind from/ knotsBaromVisibWave heightAir tempDewpointWater temp
2017-Nov-24 21:27N 37°06' W 000°50'511.7
2017-Nov-24 21:00N 37°09' W 000°44'611.8
2017-Nov-24 20:30N 37°12' W 000°38'611.7
2017-Nov-24 20:00N 37°15' W 000°32'611.6
2017-Nov-24 19:30N 37°18' W 000°26'611.4
2017-Nov-24 19:00N 37°21' W 000°20'611.6
2017-Nov-24 18:30N 37°24' W 000°13'612.0
2017-Nov-24 18:00N 37°27' W 000°07'611.8
2017-Nov-24 17:30N 37°30' W 000°01'611.5
2017-Nov-24 17:00N 37°33' E 000°06'611.4
2017-Nov-24 16:30N 37°37' E 000°11'611.3
2017-Nov-24 16:00N 37°39' E 000°18'611.3
2017-Nov-24 15:30N 37°42' E 000°24'611.3
2017-Nov-24 15:01N 37°45' E 000°30'611.2
2017-Nov-24 14:30N 37°48' E 000°36'611.0
2017-Nov-24 14:00N 37°51' E 000°42'510.8
2017-Nov-24 13:30N 37°54' E 000°48'1010.6
2017-Nov-24 12:31N 37°59' E 000°59'010.3
2017-Nov-24 12:30N 37°59' E 000°59'510.5
2017-Nov-24 12:00N 38°02' E 001°05'510.6
2017-Nov-24 11:30N 38°05' E 001°10'510.7
2017-Nov-24 11:00N 38°08' E 001°16'510.7
2017-Nov-24 10:30N 38°11' E 001°22'510.7
2017-Nov-24 10:00N 38°13' E 001°28'510.7
2017-Nov-24 09:30N 38°16' E 001°34'510.4
2017-Nov-24 09:00N 38°19' E 001°39'710.6
2017-Nov-24 08:22N 38°22' E 001°47'2910.8
2017-Nov-24 05:42N 38°37' E 002°18'211.2
2017-Nov-24 05:30N 38°38' E 002°20'611.2
2017-Nov-24 05:01N 38°41' E 002°27'611.2
2017-Nov-24 04:31N 38°44' E 002°33'611.1
2017-Nov-24 04:00N 38°47' E 002°39'510.7
2017-Nov-24 03:30N 38°50' E 002°45'510.5
2017-Nov-24 03:00N 38°53' E 002°50'510.6
2017-Nov-24 02:30N 38°56' E 002°56'510.9
2017-Nov-24 02:00N 38°59' E 003°02'610.9
2017-Nov-24 01:30N 39°02' E 003°08'611.2
2017-Nov-24 01:00N 39°04' E 003°14'510.6
2017-Nov-24 00:30N 39°07' E 003°20'511.0
2017-Nov-24 00:00N 39°10' E 003°26'510.8
2017-Nov-23 23:30N 39°13' E 003°32'510.9
2017-Nov-23 23:00N 39°16' E 003°38'1711.4
2017-Nov-23 21:34N 39°25' E 003°56'1011.2
2017-Nov-23 20:40N 39°30' E 004°07'510.5
2017-Nov-23 20:11N 39°32' E 004°13'510.9
2017-Nov-23 19:45N 39°35' E 004°18'311.3
2017-Nov-23 19:29N 39°37' E 004°21'  
2017-Nov-19 16:30N 37°45' W 000°21'918.5
2017-Nov-19 16:00N 37°37' W 000°27'918.4
2017-Nov-19 15:30N 37°30' W 000°34'918.4
2017-Nov-19 15:00N 37°24' W 000°43'918.3
2017-Nov-19 14:30N 37°18' W 000°52'22417.5
2017-Nov-19 01:39N 36°00' W 005°14'319.2
2017-Nov-19 01:30N 35°60' W 005°17'918.5
2017-Nov-19 01:00N 35°56' W 005°28'2 0.3
2017-Nov-18 19:01N 35°56' W 005°30'0 8.3
2017-Nov-18 19:00N 35°56' W 005°30'816.2
2017-Nov-18 18:30N 36°00' W 005°22'  
2017-Nov-15 19:01N 42°55' E 009°37'319.2
2017-Nov-15 18:51N 42°58' E 009°36'818.7
2017-Nov-15 18:24N 43°07' E 009°34'818.6
2017-Nov-15 17:57N 43°14' E 009°30'919.2
2017-Nov-15 17:31N 43°23' E 009°26'918.6
2017-Nov-15 17:00N 43°31' E 009°22'917.7
2017-Nov-15 16:30N 43°40' E 009°18'917.8
2017-Nov-15 16:00N 43°48' E 009°14'917.9
2017-Nov-15 15:30N 43°56' E 009°09'918.0
2017-Nov-15 15:00N 44°05' E 009°05'918.1
2017-Nov-15 14:30N 44°13' E 009°01'918.2
2017-Nov-15 14:00N 44°22' E 008°57'3 5.8
2017-Nov-15 13:31N 44°24' E 008°54'0 0.0
2017-Nov-15 13:00N 44°24' E 008°54'0 0.0
2017-Nov-15 12:30N 44°24' E 008°54'0 0.0
2017-Nov-15 11:57N 44°24' E 008°54'0 0.0
2017-Nov-15 11:27N 44°24' E 008°54'0 0.0
2017-Nov-15 11:00N 44°24' E 008°54'0 0.0
2017-Nov-15 10:27N 44°24' E 008°54'0 0.0
2017-Nov-15 09:57N 44°24' E 008°54'0 0.0
2017-Nov-15 09:24N 44°24' E 008°54'0 0.0
2017-Nov-15 08:54N 44°24' E 008°54'0 0.0
2017-Nov-15 08:30N 44°24' E 008°54'0 0.0
2017-Nov-15 08:00N 44°24' E 008°54'0 0.0
2017-Nov-15 07:30N 44°24' E 008°54'0 0.2
2017-Nov-15 07:01N 44°24' E 008°54'3 6.4
2017-Nov-15 06:31N 44°22' E 008°58'713.5
2017-Nov-15 06:00N 44°16' E 008°54'917.8
2017-Nov-15 05:30N 44°09' E 008°46'917.6
2017-Nov-15 05:01N 44°03' E 008°38'917.5
2017-Nov-15 04:30N 43°57' E 008°29'917.8
2017-Nov-15 04:00N 43°51' E 008°20'917.5
2017-Nov-15 03:28N 43°45' E 008°10'2518.6
2017-Nov-15 02:08N 43°30' E 007°43'219.2
2017-Nov-15 02:00N 43°28' E 007°40'919.0
2017-Nov-15 01:31N 43°23' E 007°29'919.0
2017-Nov-15 01:01N 43°17' E 007°19'1019.4
2017-Nov-15 00:30N 43°11' E 007°09'1019.4
2017-Nov-15 00:00N 43°05' E 006°58'  

Dump ship's entire track history